Barstow, Texas
Current Conditions -  °F | °C
As of 11:15 PM on Saturday 25 Oct 2014 (Local Time) from KPEQ Reporting Station
Clear Clear  
Wind Chill: 64°   Ceiling: Unl
Heat Index: 64°   Visibility: 10mi
Dew Point: 54°   Wind: 8mph
Humidity: 70%   Direction: 120°ESE
Pressure: 30.07"   Gusts: NA
Location:  31.46°N, 103.39°W
Report Text: KPEQ 260415Z AUTO 12007KT 10SM CLR 18/12 A3007 RMK AO2 T01770121
Loading
Personal Weather Stations






























Interactive Weather Map
Tropical Storm Tracking
New forecast layout! Learn more

10-Day Weather Forecast

Advertisements
Track Severe Weather on mobile